MSC Zebra — 9HA3367 — position and weather

sailwx.info

Track history (hours):
 
Tides and Currents Weather Stations Pressure Air Temp Water Temp Dewpoint Dewpoint Depression Visibility Wind Speed Wind Dir Waves Ship Positions

MSC Zebra

Last reported at 2018-Jun-18 23:38 UTC. Time now 2018-Jun-24 14:14 UTC.
Position N 09°33' W 079°56'.

Length 210 m; draft 8.3 m.

Type: Cargo ship. MMSI: 229481000.

Date/timePositionNaut miles runAvg speedWind from/ knotsBaromVisibWave heightAir tempDewpointWater temp
2018-Jun-18 23:38N 09°33' W 079°56'211.4
2018-Jun-18 23:30N 09°31' W 079°55'711.2
2018-Jun-18 22:55N 09°24' W 079°55'3 8.4
2018-Jun-18 22:30N 09°21' W 079°55'0 0.5
2018-Jun-18 22:00N 09°21' W 079°54'0 0.0
2018-Jun-18 21:30N 09°21' W 079°54'0 0.0
2018-Jun-18 21:00N 09°21' W 079°54'0 0.0
2018-Jun-18 20:30N 09°21' W 079°54'0 0.0
2018-Jun-18 20:00N 09°21' W 079°54'0 0.0
2018-Jun-18 19:30N 09°21' W 079°54'0 0.0
2018-Jun-18 19:00N 09°21' W 079°54'0 0.0
2018-Jun-18 18:30N 09°21' W 079°54'0 0.0
2018-Jun-18 18:00N 09°21' W 079°54'0 0.0
2018-Jun-18 17:30N 09°21' W 079°54'0 0.0
2018-Jun-18 17:00N 09°21' W 079°54'0 0.0
2018-Jun-18 16:30N 09°21' W 079°54'0 0.0
2018-Jun-18 16:00N 09°21' W 079°54'0 0.0
2018-Jun-18 15:30N 09°21' W 079°54'0 0.0
2018-Jun-18 15:00N 09°21' W 079°54'0 0.0
2018-Jun-18 14:30N 09°21' W 079°54'0 0.0
2018-Jun-18 14:00N 09°21' W 079°54'0 0.0
2018-Jun-18 13:30N 09°21' W 079°54'0 0.0
2018-Jun-18 13:00N 09°21' W 079°54'0 0.0
2018-Jun-18 12:30N 09°21' W 079°54'0 0.0
2018-Jun-18 12:00N 09°21' W 079°54'0 0.0
2018-Jun-18 11:24N 09°21' W 079°54'0 0.0
2018-Jun-18 11:00N 09°21' W 079°54'0 0.0
2018-Jun-18 10:30N 09°21' W 079°54'0 0.0
2018-Jun-18 10:00N 09°21' W 079°54'0 0.0
2018-Jun-18 09:30N 09°21' W 079°54'0 0.0
2018-Jun-18 09:00N 09°21' W 079°54'0 0.0
2018-Jun-18 08:30N 09°21' W 079°54'0 0.0
2018-Jun-18 08:00N 09°21' W 079°54'0 0.0
2018-Jun-18 07:30N 09°21' W 079°54'0 0.0
2018-Jun-18 07:00N 09°21' W 079°54'0 0.0
2018-Jun-18 06:30N 09°21' W 079°54'0 0.0
2018-Jun-18 06:00N 09°21' W 079°54'0 0.0
2018-Jun-18 05:30N 09°21' W 079°54'0 0.0
2018-Jun-18 05:00N 09°21' W 079°54'0 0.0
2018-Jun-18 04:30N 09°21' W 079°54'0 0.0
2018-Jun-18 04:00N 09°21' W 079°54'0 0.0
2018-Jun-18 03:30N 09°21' W 079°54'0 0.0
2018-Jun-18 03:00N 09°21' W 079°54'0 0.0
2018-Jun-18 02:30N 09°21' W 079°54'1 1.4
2018-Jun-18 02:00N 09°21' W 079°55'4 7.1
2018-Jun-18 01:30N 09°25' W 079°55'  
2018-Jun-14 02:11N 09°33' W 079°58'317.2
2018-Jun-14 02:00N 09°30' W 079°56'814.7
2018-Jun-14 01:29N 09°22' W 079°55'1 2.8
2018-Jun-14 01:00N 09°21' W 079°54'0 0.1
2018-Jun-14 00:27N 09°21' W 079°54'0 0.0
2018-Jun-14 00:00N 09°21' W 079°54'0 0.0
2018-Jun-13 23:30N 09°21' W 079°54'0 0.0
2018-Jun-13 23:00N 09°21' W 079°54'0 0.0
2018-Jun-13 22:30N 09°21' W 079°54'0 0.0
2018-Jun-13 22:00N 09°21' W 079°54'0 0.0
2018-Jun-13 21:30N 09°21' W 079°54'0 0.0
2018-Jun-13 21:00N 09°21' W 079°54'0 0.0
2018-Jun-13 20:30N 09°21' W 079°54'0 0.0
2018-Jun-13 20:00N 09°21' W 079°54'0 0.0
2018-Jun-13 19:30N 09°21' W 079°54'0 0.1
2018-Jun-13 19:00N 09°21' W 079°54'0 0.0
2018-Jun-13 18:30N 09°21' W 079°54'0 0.0
2018-Jun-13 18:00N 09°21' W 079°54'0 0.0
2018-Jun-13 17:30N 09°21' W 079°54'0 0.0
2018-Jun-13 17:00N 09°21' W 079°54'0 0.0
2018-Jun-13 16:30N 09°21' W 079°54'0 0.0
2018-Jun-13 16:00N 09°21' W 079°54'0 0.0
2018-Jun-13 15:30N 09°21' W 079°54'0 0.0
2018-Jun-13 15:00N 09°21' W 079°54'0 0.0
2018-Jun-13 14:30N 09°21' W 079°54'0 0.3
2018-Jun-13 14:00N 09°21' W 079°55'2 3.2
2018-Jun-13 13:30N 09°23' W 079°55'3 6.0
2018-Jun-13 13:00N 09°26' W 079°55'2 4.2
2018-Jun-13 12:30N 09°27' W 079°54'1 1.2
2018-Jun-13 12:01N 09°28' W 079°54'610.5
2018-Jun-13 11:28N 09°31' W 079°59'  
Track history (hours):
 
Tides and Currents Weather Stations Pressure Air Temp Water Temp Dewpoint Dewpoint Depression Visibility Wind Speed Wind Dir Waves Ship Positions

MSC Zebra

Last reported at 2018-Jun-18 23:38 UTC. Time now 2018-Jun-24 14:14 UTC.
Position N 09°33' W 079°56'.

Length 210 m; draft 8.3 m.

Type: Cargo ship. MMSI: 229481000.

Date/timePositionNaut miles runAvg speedWind from/ knotsBaromVisibWave heightAir tempDewpointWater temp
2018-Jun-18 23:38N 09°33' W 079°56'211.4
2018-Jun-18 23:30N 09°31' W 079°55'711.2
2018-Jun-18 22:55N 09°24' W 079°55'3 8.4
2018-Jun-18 22:30N 09°21' W 079°55'0 0.5
2018-Jun-18 22:00N 09°21' W 079°54'0 0.0
2018-Jun-18 21:30N 09°21' W 079°54'0 0.0
2018-Jun-18 21:00N 09°21' W 079°54'0 0.0
2018-Jun-18 20:30N 09°21' W 079°54'0 0.0
2018-Jun-18 20:00N 09°21' W 079°54'0 0.0
2018-Jun-18 19:30N 09°21' W 079°54'0 0.0
2018-Jun-18 19:00N 09°21' W 079°54'0 0.0
2018-Jun-18 18:30N 09°21' W 079°54'0 0.0
2018-Jun-18 18:00N 09°21' W 079°54'0 0.0
2018-Jun-18 17:30N 09°21' W 079°54'0 0.0
2018-Jun-18 17:00N 09°21' W 079°54'0 0.0
2018-Jun-18 16:30N 09°21' W 079°54'0 0.0
2018-Jun-18 16:00N 09°21' W 079°54'0 0.0
2018-Jun-18 15:30N 09°21' W 079°54'0 0.0
2018-Jun-18 15:00N 09°21' W 079°54'0 0.0
2018-Jun-18 14:30N 09°21' W 079°54'0 0.0
2018-Jun-18 14:00N 09°21' W 079°54'0 0.0
2018-Jun-18 13:30N 09°21' W 079°54'0 0.0
2018-Jun-18 13:00N 09°21' W 079°54'0 0.0
2018-Jun-18 12:30N 09°21' W 079°54'0 0.0
2018-Jun-18 12:00N 09°21' W 079°54'0 0.0
2018-Jun-18 11:24N 09°21' W 079°54'0 0.0
2018-Jun-18 11:00N 09°21' W 079°54'0 0.0
2018-Jun-18 10:30N 09°21' W 079°54'0 0.0
2018-Jun-18 10:00N 09°21' W 079°54'0 0.0
2018-Jun-18 09:30N 09°21' W 079°54'0 0.0
2018-Jun-18 09:00N 09°21' W 079°54'0 0.0
2018-Jun-18 08:30N 09°21' W 079°54'0 0.0
2018-Jun-18 08:00N 09°21' W 079°54'0 0.0
2018-Jun-18 07:30N 09°21' W 079°54'0 0.0
2018-Jun-18 07:00N 09°21' W 079°54'0 0.0
2018-Jun-18 06:30N 09°21' W 079°54'0 0.0
2018-Jun-18 06:00N 09°21' W 079°54'0 0.0
2018-Jun-18 05:30N 09°21' W 079°54'0 0.0
2018-Jun-18 05:00N 09°21' W 079°54'0 0.0
2018-Jun-18 04:30N 09°21' W 079°54'0 0.0
2018-Jun-18 04:00N 09°21' W 079°54'0 0.0
2018-Jun-18 03:30N 09°21' W 079°54'0 0.0
2018-Jun-18 03:00N 09°21' W 079°54'0 0.0
2018-Jun-18 02:30N 09°21' W 079°54'1 1.4
2018-Jun-18 02:00N 09°21' W 079°55'4 7.1
2018-Jun-18 01:30N 09°25' W 079°55'  
2018-Jun-14 02:11N 09°33' W 079°58'317.2
2018-Jun-14 02:00N 09°30' W 079°56'814.7
2018-Jun-14 01:29N 09°22' W 079°55'1 2.8
2018-Jun-14 01:00N 09°21' W 079°54'0 0.1
2018-Jun-14 00:27N 09°21' W 079°54'0 0.0
2018-Jun-14 00:00N 09°21' W 079°54'0 0.0
2018-Jun-13 23:30N 09°21' W 079°54'0 0.0
2018-Jun-13 23:00N 09°21' W 079°54'0 0.0
2018-Jun-13 22:30N 09°21' W 079°54'0 0.0
2018-Jun-13 22:00N 09°21' W 079°54'0 0.0
2018-Jun-13 21:30N 09°21' W 079°54'0 0.0
2018-Jun-13 21:00N 09°21' W 079°54'0 0.0
2018-Jun-13 20:30N 09°21' W 079°54'0 0.0
2018-Jun-13 20:00N 09°21' W 079°54'0 0.0
2018-Jun-13 19:30N 09°21' W 079°54'0 0.1
2018-Jun-13 19:00N 09°21' W 079°54'0 0.0
2018-Jun-13 18:30N 09°21' W 079°54'0 0.0
2018-Jun-13 18:00N 09°21' W 079°54'0 0.0
2018-Jun-13 17:30N 09°21' W 079°54'0 0.0
2018-Jun-13 17:00N 09°21' W 079°54'0 0.0
2018-Jun-13 16:30N 09°21' W 079°54'0 0.0
2018-Jun-13 16:00N 09°21' W 079°54'0 0.0
2018-Jun-13 15:30N 09°21' W 079°54'0 0.0
2018-Jun-13 15:00N 09°21' W 079°54'0 0.0
2018-Jun-13 14:30N 09°21' W 079°54'0 0.3
2018-Jun-13 14:00N 09°21' W 079°55'2 3.2
2018-Jun-13 13:30N 09°23' W 079°55'3 6.0
2018-Jun-13 13:00N 09°26' W 079°55'2 4.2
2018-Jun-13 12:30N 09°27' W 079°54'1 1.2
2018-Jun-13 12:01N 09°28' W 079°54'610.5
2018-Jun-13 11:28N 09°31' W 079°59'  

Dump ship's entire track history